Joliette, Canada
Current Conditions -  °F | °C
As of 12:00 PM on Friday 31 Oct 2014 (Local Time) from CYHU Reporting Station
Few Clouds Few Clouds  
Wind Chill: 43°   Ceiling: Unl
Heat Index: 43°   Visibility: 9mi
Dew Point: 27°   Wind: 2mph
Humidity: 53%   Direction: NA
Pressure: 30.08"   Gusts: NA
Location:  46.02°N, 73.44°W
Report Text: CYHU 311600Z AUTO VRB02KT 9SM FEW041 06/M03 A3008 RMK SLP187
Loading
Personal Weather Stations






























Interactive Weather Map
Tropical Storm Tracking
New forecast layout! Learn more

10-Day Weather Forecast

Advertisements
Track Severe Weather on mobile